Time;durP1;ratioP1;P1;durP2;ratioP2;P2;SDS_P1;SDS_P2;PMS_P1;PMS_P2;Temp;Humidity;BMP_temperature;BMP_pressure;BME280_temperature;BME280_humidity;BME280_pressure;Samples;Min_cycle;Max_cycle;Signal;HPM_P1;HPM_P2
2023/12/13 00:00:37;;;;;;;21.80;14.95;;;;;;;2.69;100.00;99316.03;5104705;28;20417;-68
2023/12/13 00:03:03;;;;;;;23.17;14.73;;;;;;;2.84;100.00;99303.25;5074635;28;20032;-68
2023/12/13 00:05:29;;;;;;;28.17;18.45;;;;;;;2.87;100.00;99319.25;5074881;28;20030;-68
2023/12/13 00:07:54;;;;;;;26.83;15.35;;;;;;;2.63;100.00;99325.47;5092842;28;20031;-68
2023/12/13 00:10:20;;;;;;;22.10;13.98;;;;;;;2.69;100.00;99318.00;5092939;28;20024;-67
2023/12/13 00:12:45;;;;;;;24.08;13.35;;;;;;;2.75;100.00;99319.59;5092930;28;20043;-68
2023/12/13 00:15:12;;;;;;;25.33;14.10;;;;;;;2.53;100.00;99329.09;5075484;28;20028;-68
2023/12/13 00:17:37;;;;;;;24.10;14.50;;;;;;;2.79;100.00;99309.63;5096627;28;20025;-68
2023/12/13 00:20:05;;;;;;;22.52;14.02;;;;;;;2.90;100.00;99316.75;5112062;28;20080;-68
2023/12/13 00:22:32;;;;;;;22.60;12.98;;;;;;;2.65;100.00;99320.50;5112647;28;20090;-68
2023/12/13 00:24:57;;;;;;;26.92;14.95;;;;;;;2.79;100.00;99324.25;5112560;28;20027;-67
2023/12/13 00:27:23;;;;;;;22.13;12.85;;;;;;;2.85;100.00;99322.28;5095621;28;20035;-68
2023/12/13 00:29:48;;;;;;;21.42;13.10;;;;;;;2.86;100.00;99334.19;5074478;28;20016;-68
2023/12/13 00:32:14;;;;;;;26.67;14.02;;;;;;;2.73;100.00;99343.91;5092756;28;20028;-68
2023/12/13 00:34:39;;;;;;;27.02;15.00;;;;;;;2.50;100.00;99332.44;5074364;28;20480;-68
2023/12/13 00:37:05;;;;;;;31.23;15.13;;;;;;;2.54;100.00;99336.31;5092445;28;20050;-68
2023/12/13 00:39:31;;;;;;;22.35;13.65;;;;;;;2.73;100.00;99339.22;5094646;28;20502;-74
2023/12/13 00:41:57;;;;;;;23.55;13.30;;;;;;;2.76;100.00;99337.81;5093171;28;20043;-74
2023/12/13 00:44:22;;;;;;;20.83;12.82;;;;;;;2.77;100.00;99340.28;5111312;28;20050;-74
2023/12/13 00:46:48;;;;;;;24.05;12.57;;;;;;;2.79;100.00;99334.50;5092180;28;20028;-74
2023/12/13 00:49:14;;;;;;;25.58;12.82;;;;;;;2.68;100.00;99325.44;5106822;28;20023;-75
2023/12/13 00:51:40;;;;;;;23.60;12.52;;;;;;;2.67;100.00;99319.09;5111889;28;20420;-74
2023/12/13 00:54:05;;;;;;;19.60;12.57;;;;;;;2.66;100.00;99328.50;5112603;28;20024;-75
2023/12/13 00:56:31;;;;;;;21.63;13.45;;;;;;;2.55;100.00;99320.53;5112558;28;20030;-74
2023/12/13 00:58:57;;;;;;;24.30;15.02;;;;;;;2.65;100.00;99323.25;5089613;28;20040;-75
2023/12/13 01:01:23;;;;;;;23.23;14.20;;;;;;;2.56;100.00;99325.78;5101058;28;20080;-74
2023/12/13 01:03:49;;;;;;;25.02;13.40;;;;;;;2.64;100.00;99338.19;5093882;28;20051;-75
2023/12/13 01:06:14;;;;;;;21.30;11.95;;;;;;;2.74;100.00;99338.13;5112187;28;20024;-75
2023/12/13 01:08:40;;;;;;;18.58;11.65;;;;;;;2.12;100.00;99340.34;5093836;28;20027;-74
2023/12/13 01:11:09;;;;;;;23.33;12.77;;;;;;;2.05;100.00;99341.50;5112173;28;20027;-75
2023/12/13 01:13:35;;;;;;;25.15;13.15;;;;;;;2.18;100.00;99342.81;5111676;28;20480;-75
2023/12/13 01:16:01;;;;;;;22.80;12.93;;;;;;;2.40;100.00;99336.09;5091504;28;20039;-75
2023/12/13 01:18:26;;;;;;;23.52;13.80;;;;;;;2.31;100.00;99329.50;5091697;28;20036;-74
2023/12/13 01:20:52;;;;;;;27.42;19.17;;;;;;;2.16;100.00;99333.16;5099783;28;20034;-74
2023/12/13 01:23:17;;;;;;;26.80;13.60;;;;;;;1.92;100.00;99322.75;5094834;28;20032;-75
2023/12/13 01:25:43;;;;;;;26.88;13.95;;;;;;;2.08;100.00;99320.78;5095355;28;20031;-75
2023/12/13 01:28:08;;;;;;;23.58;12.40;;;;;;;2.23;100.00;99315.22;5091517;28;20023;-74
2023/12/13 01:30:34;;;;;;;23.20;13.48;;;;;;;2.19;100.00;99313.28;5091005;28;20016;-75
2023/12/13 01:32:59;;;;;;;21.05;12.43;;;;;;;2.34;100.00;99318.72;5091377;28;20031;-75
2023/12/13 01:35:25;;;;;;;20.30;11.88;;;;;;;2.48;100.00;99326.38;5091882;28;20035;-75
2023/12/13 01:37:50;;;;;;;22.02;11.82;;;;;;;2.44;100.00;99320.59;5074477;28;20495;-75
2023/12/13 01:40:16;;;;;;;18.75;11.65;;;;;;;2.42;100.00;99327.53;5091392;28;20495;-75
2023/12/13 01:42:41;;;;;;;22.88;13.25;;;;;;;2.17;100.00;99327.34;5083846;28;20038;-74
2023/12/13 01:45:08;;;;;;;24.40;13.80;;;;;;;2.32;100.00;99326.47;5110338;28;20028;-75
2023/12/13 01:47:34;;;;;;;17.83;11.88;;;;;;;2.46;100.00;99317.56;5093269;28;20023;-75
2023/12/13 01:50:00;;;;;;;23.80;13.63;;;;;;;2.43;100.00;99312.63;5091764;28;20020;-73
2023/12/13 01:52:26;;;;;;;23.05;14.57;;;;;;;2.24;100.00;99293.94;5083859;28;20460;-73
2023/12/13 01:54:52;;;;;;;31.08;17.40;;;;;;;2.40;100.00;99305.72;5072943;28;20385;-73
2023/12/13 01:57:18;;;;;;;39.47;18.70;;;;;;;2.28;100.00;99311.56;5091173;28;20461;-73
2023/12/13 01:59:44;;;;;;;36.88;19.75;;;;;;;2.36;100.00;99308.22;5090829;28;20024;-72
2023/12/13 02:02:10;;;;;;;39.60;20.73;;;;;;;2.36;100.00;99299.94;5092968;28;20042;-73
2023/12/13 02:04:37;;;;;;;30.40;18.52;;;;;;;2.37;100.00;99282.25;5111238;28;20070;-72
2023/12/13 02:07:03;;;;;;;36.08;21.23;;;;;;;2.41;100.00;99288.03;5093197;28;20034;-72
2023/12/13 02:09:28;;;;;;;63.22;31.92;;;;;;;2.35;100.00;99295.53;5090349;28;20027;-73
2023/12/13 02:11:54;;;;;;;52.28;25.63;;;;;;;2.16;100.00;99280.72;5091126;28;20031;-72
2023/12/13 02:14:20;;;;;;;44.40;23.98;;;;;;;1.82;100.00;99272.06;5090831;28;20030;-73
2023/12/13 02:16:45;;;;;;;35.83;19.50;;;;;;;2.06;100.00;99265.88;5090639;28;20028;-70
2023/12/13 02:19:11;;;;;;;42.60;23.58;;;;;;;1.98;100.00;99266.47;5110668;28;20069;-73
2023/12/13 02:21:37;;;;;;;42.85;24.23;;;;;;;1.89;100.00;99277.28;5105073;28;20043;-73
2023/12/13 02:24:07;;;;;;;33.72;19.95;;;;;;;1.77;100.00;99296.06;5076077;28;20028;-73
2023/12/13 02:26:43;;;;;;;39.05;25.85;;;;;;;1.57;100.00;99305.19;5072830;28;20493;-72
2023/12/13 02:29:09;;;;;;;51.20;28.85;;;;;;;1.32;100.00;99317.91;5090767;28;20416;-72
2023/12/13 02:31:35;;;;;;;53.67;30.52;;;;;;;1.09;100.00;99317.41;5072718;28;20028;-73
2023/12/13 02:34:01;;;;;;;49.60;27.33;;;;;;;1.22;100.00;99293.97;5090695;28;20439;-72
2023/12/13 02:36:26;;;;;;;49.55;25.77;;;;;;;1.48;100.00;99285.66;5091101;28;20032;-72
2023/12/13 02:38:52;;;;;;;46.55;28.25;;;;;;;1.69;100.00;99278.16;5111093;28;20028;-73
2023/12/13 02:41:17;;;;;;;49.72;26.73;;;;;;;1.85;100.00;99280.88;5111004;28;20032;-73
2023/12/13 02:43:42;;;;;;;43.17;26.42;;;;;;;1.91;100.00;99290.75;5112919;28;20480;-72
2023/12/13 02:46:08;;;;;;;52.10;29.45;;;;;;;1.55;100.00;99308.25;5114876;28;20032;-73
2023/12/13 02:48:33;;;;;;;50.45;30.35;;;;;;;1.60;100.00;99310.97;5096192;28;20038;-73
2023/12/13 02:51:00;;;;;;;61.78;32.78;;;;;;;1.30;100.00;99314.63;5094372;28;20044;-73
2023/12/13 02:53:26;;;;;;;50.65;29.15;;;;;;;0.87;100.00;99317.66;5076432;28;20032;-72
2023/12/13 02:55:51;;;;;;;59.58;34.92;;;;;;;0.94;100.00;99319.03;5111908;28;20027;-73
2023/12/13 02:58:19;;;;;;;57.80;33.05;;;;;;;0.79;100.00;99316.28;5094592;28;20032;-76
2023/12/13 03:00:45;;;;;;;56.17;31.95;;;;;;;0.75;100.00;99276.63;5096601;28;20028;-69
2023/12/13 03:03:10;;;;;;;53.00;30.55;;;;;;;0.87;100.00;99268.91;5114619;28;20047;-69
2023/12/13 03:05:36;;;;;;;46.08;28.02;;;;;;;1.17;100.00;99260.91;5114686;28;20058;-69
2023/12/13 03:08:01;;;;;;;47.35;28.88;;;;;;;1.37;100.00;99262.81;5090008;28;20020;-69
2023/12/13 03:10:27;;;;;;;51.67;28.63;;;;;;;1.56;100.00;99268.53;5094154;28;20111;-69
2023/12/13 03:12:53;;;;;;;46.75;26.85;;;;;;;1.65;100.00;99264.13;5075849;28;20119;-69
2023/12/13 03:15:19;;;;;;;41.22;24.90;;;;;;;1.67;100.00;99259.13;5075794;28;20060;-69
2023/12/13 03:17:44;;;;;;;46.65;25.65;;;;;;;1.79;100.00;99255.25;5104520;28;20434;-69
2023/12/13 03:20:10;;;;;;;47.33;25.13;;;;;;;1.94;100.00;99257.13;5113929;28;20039;-69
2023/12/13 03:22:36;;;;;;;52.28;27.67;;;;;;;2.00;100.00;99266.19;5095695;28;20511;-69
2023/12/13 03:25:01;;;;;;;55.13;25.40;;;;;;;2.00;100.00;99264.25;5112417;28;20112;-69
2023/12/13 03:27:27;;;;;;;56.90;26.60;;;;;;;1.99;100.00;99247.97;5095307;28;20437;-69
2023/12/13 03:29:52;;;;;;;40.10;22.63;;;;;;;1.91;100.00;99230.06;5095888;28;20449;-69
2023/12/13 03:32:17;;;;;;;35.83;20.45;;;;;;;1.87;100.00;99210.53;5114146;28;20034;-69
2023/12/13 03:34:43;;;;;;;34.42;21.08;;;;;;;1.77;100.00;99222.41;5113932;28;20023;-69
2023/12/13 03:37:09;;;;;;;48.15;26.10;;;;;;;1.20;100.00;99252.09;5095224;28;20023;-69
2023/12/13 03:39:34;;;;;;;42.22;25.88;;;;;;;1.09;100.00;99248.53;5087574;28;20028;-69
2023/12/13 03:42:00;;;;;;;50.22;26.38;;;;;;;0.87;100.00;99257.06;5077264;28;20032;-69
2023/12/13 03:44:25;;;;;;;45.78;26.38;;;;;;;0.91;100.00;99242.47;5113813;28;20036;-69
2023/12/13 03:46:51;;;;;;;41.38;23.98;;;;;;;0.83;100.00;99254.88;5079000;28;20452;-69
2023/12/13 03:49:16;;;;;;;39.95;23.55;;;;;;;0.83;100.00;99267.78;5093302;28;20055;-69
2023/12/13 03:51:47;;;;;;;50.40;26.10;;;;;;;0.43;100.00;99280.44;5075302;28;20046;-69
2023/12/13 03:54:13;;;;;;;47.65;25.42;;;;;;;0.22;100.00;99297.72;5092979;28;20554;-69
2023/12/13 03:56:39;;;;;;;41.85;24.58;;;;;;;0.23;100.00;99276.53;5094916;28;20039;-69
2023/12/13 03:59:04;;;;;;;50.25;26.58;;;;;;;0.28;100.00;99280.09;5093238;28;20024;-69
2023/12/13 04:01:30;;;;;;;54.72;31.45;;;;;;;0.15;100.00;99272.38;5093240;28;20032;-69
2023/12/13 04:03:55;;;;;;;54.63;28.50;;;;;;;0.31;100.00;99265.00;5086921;28;20043;-69
2023/12/13 04:06:20;;;;;;;50.42;25.77;;;;;;;0.37;100.00;99261.16;5104245;28;20020;-69
2023/12/13 04:08:46;;;;;;;46.25;24.10;;;;;;;0.50;100.00;99270.00;5113519;28;20043;-76
2023/12/13 04:11:11;;;;;;;44.20;25.20;;;;;;;0.37;100.00;99277.69;5110693;28;20020;-75
2023/12/13 04:13:37;;;;;;;43.33;24.60;;;;;;;0.70;100.00;99269.19;5092852;28;20034;-76
2023/12/13 04:16:03;;;;;;;43.70;26.08;;;;;;;0.63;100.00;99274.97;5101737;28;20030;-76
2023/12/13 04:18:28;;;;;;;50.63;27.52;;;;;;;0.68;100.00;99283.22;5112920;28;20020;-76
2023/12/13 04:20:54;;;;;;;44.22;25.50;;;;;;;0.70;100.00;99286.50;5113138;28;20062;-75
2023/12/13 04:23:19;;;;;;;44.47;25.75;;;;;;;0.73;100.00;99273.31;5112193;28;20479;-76
2023/12/13 04:25:44;;;;;;;43.40;24.27;;;;;;;0.87;100.00;99276.34;5094356;28;20035;-76
2023/12/13 04:28:10;;;;;;;38.75;24.23;;;;;;;0.79;100.00;99288.72;5110849;28;20496;-76
2023/12/13 04:30:35;;;;;;;40.13;23.05;;;;;;;0.57;100.00;99292.56;5087174;28;20027;-76
2023/12/13 04:33:01;;;;;;;44.70;25.77;;;;;;;0.51;100.00;99293.66;5113004;28;20408;-76
2023/12/13 04:35:28;;;;;;;45.15;23.58;;;;;;;0.68;100.00;99302.50;5109099;28;20032;-76
2023/12/13 04:37:53;;;;;;;39.60;22.90;;;;;;;0.64;100.00;99306.91;5074375;28;20043;-76
2023/12/13 04:40:19;;;;;;;39.13;22.27;;;;;;;0.83;100.00;99309.09;5092284;28;20052;-75
2023/12/13 04:42:44;;;;;;;37.58;21.40;;;;;;;0.86;100.00;99292.06;5099017;28;20034;-75
2023/12/13 04:45:10;;;;;;;46.17;24.60;;;;;;;1.04;100.00;99300.84;5111583;28;20510;-75
2023/12/13 04:47:35;;;;;;;58.70;32.10;;;;;;;1.04;100.00;99301.69;5085077;28;20557;-75
2023/12/13 04:50:01;;;;;;;41.20;25.10;;;;;;;0.95;100.00;99300.59;5092250;28;20019;-75
2023/12/13 04:52:26;;;;;;;35.25;19.50;;;;;;;0.93;100.00;99306.34;5074044;28;20136;-74
2023/12/13 04:54:51;;;;;;;37.88;20.52;;;;;;;0.88;100.00;99291.75;5092116;28;20020;-76
2023/12/13 04:57:17;;;;;;;44.53;25.48;;;;;;;0.92;100.00;99299.19;5099980;28;20036;-75
2023/12/13 04:59:42;;;;;;;59.90;33.92;;;;;;;0.83;100.00;99304.44;5092065;28;20463;-76
2023/12/13 05:02:08;;;;;;;49.05;29.23;;;;;;;0.94;100.00;99294.25;5091062;28;20503;-76
2023/12/13 05:04:33;;;;;;;47.50;26.00;;;;;;;1.11;100.00;99279.38;5091855;28;20043;-76
2023/12/13 05:06:59;;;;;;;56.22;31.42;;;;;;;1.29;100.00;99263.34;5106544;28;20457;-75
2023/12/13 05:09:24;;;;;;;69.25;39.88;;;;;;;1.47;100.00;99253.69;5112165;28;20028;-76
2023/12/13 05:11:50;;;;;;;68.95;38.63;;;;;;;1.47;100.00;99256.44;5095155;28;20047;-75
2023/12/13 05:14:15;;;;;;;77.57;47.53;;;;;;;1.56;100.00;99240.13;5091788;28;20024;-74
2023/12/13 05:16:40;;;;;;;91.55;51.28;;;;;;;1.71;100.00;99242.84;5091755;28;20028;-75
2023/12/13 05:19:06;;;;;;;64.03;38.30;;;;;;;1.68;100.00;99216.66;5076186;28;20027;-72
2023/12/13 05:21:31;;;;;;;62.75;32.63;;;;;;;1.73;100.00;99243.41;5092963;28;20529;-72
2023/12/13 05:23:57;;;;;;;55.47;31.75;;;;;;;1.65;100.00;99252.25;5112035;28;20397;-73
2023/12/13 05:26:22;;;;;;;49.80;29.88;;;;;;;1.82;100.00;99261.03;5111278;27;20419;-73
2023/12/13 05:28:48;;;;;;;62.17;32.40;;;;;;;1.89;100.00;99257.97;5091635;28;20178;-72
2023/12/13 05:31:20;;;;;;;56.90;31.80;;;;;;;1.96;100.00;99260.41;5104947;28;20020;-73
2023/12/13 05:33:46;;;;;;;63.72;32.05;;;;;;;1.96;100.00;99260.41;5109753;28;20491;-72
2023/12/13 05:36:12;;;;;;;71.45;33.80;;;;;;;2.05;100.00;99261.47;5083182;28;20480;-73
2023/12/13 05:38:37;;;;;;;64.55;29.23;;;;;;;1.99;100.00;99236.94;5086371;28;20019;-71
2023/12/13 05:41:03;;;;;;;59.80;31.08;;;;;;;2.04;100.00;99234.97;5092605;28;20027;-74
2023/12/13 05:43:29;;;;;;;82.00;35.25;;;;;;;2.08;100.00;99246.25;5110297;28;20020;-73
2023/12/13 05:45:56;;;;;;;58.47;31.88;;;;;;;2.10;100.00;99255.91;5102026;28;20028;-72
2023/12/13 05:48:21;;;;;;;48.35;26.80;;;;;;;2.13;100.00;99250.94;5101435;28;20555;-73
2023/12/13 05:50:46;;;;;;;56.75;24.85;;;;;;;2.13;100.00;99261.97;5081011;28;20028;-73
2023/12/13 05:53:12;;;;;;;105.78;43.78;;;;;;;1.71;100.00;99253.06;5085824;28;20514;-75
2023/12/13 05:55:37;;;;;;;78.80;38.00;;;;;;;1.26;100.00;99249.03;5103605;28;20479;-77
2023/12/13 05:58:03;;;;;;;81.85;39.15;;;;;;;1.52;100.00;99231.63;5081735;28;20433;-73
2023/12/13 06:00:30;;;;;;;83.40;39.90;;;;;;;1.72;100.00;99222.44;5077440;28;20412;-76
2023/12/13 06:02:56;;;;;;;71.63;37.08;;;;;;;1.61;100.00;99205.09;5110826;28;20027;-75
2023/12/13 06:05:21;;;;;;;75.75;40.17;;;;;;;1.65;100.00;99202.59;5111813;28;20035;-75
2023/12/13 06:07:47;;;;;;;85.68;48.30;;;;;;;1.47;100.00;99193.03;5104981;28;20042;-75
2023/12/13 06:10:12;;;;;;;91.18;46.28;;;;;;;1.55;100.00;99206.25;5089036;28;20408;-75
2023/12/13 06:12:38;;;;;;;95.43;46.50;;;;;;;1.60;100.00;99210.91;5090916;28;20097;-76
2023/12/13 06:15:03;;;;;;;96.05;47.92;;;;;;;1.56;100.00;99223.59;5074692;28;20558;-75
2023/12/13 06:17:29;;;;;;;72.97;41.72;;;;;;;1.41;100.00;99228.06;5097246;27;20419;-75
2023/12/13 06:19:54;;;;;;;79.50;40.85;;;;;;;1.61;100.00;99231.88;5097860;28;20423;-73
2023/12/13 06:22:20;;;;;;;74.47;38.67;;;;;;;1.75;100.00;99243.94;5097072;28;20020;-72
2023/12/13 06:24:45;;;;;;;70.13;40.03;;;;;;;1.90;100.00;99250.50;5097574;28;20023;-70
2023/12/13 06:27:11;;;;;;;78.00;41.28;;;;;;;1.65;100.00;99253.09;5111231;28;20034;-71
2023/12/13 06:29:36;;;;;;;61.60;33.47;;;;;;;1.55;100.00;99266.91;5087496;28;20047;-75
2023/12/13 06:32:02;;;;;;;63.85;34.78;;;;;;;1.60;100.00;99268.81;5108348;28;20137;-74
2023/12/13 06:34:27;;;;;;;68.15;44.35;;;;;;;1.75;100.00;99277.03;5086178;28;20043;-73
2023/12/13 06:36:53;;;;;;;60.65;39.00;;;;;;;1.99;100.00;99294.88;5102554;28;20136;-71
2023/12/13 06:39:18;;;;;;;92.00;51.83;;;;;;;1.99;100.00;99290.19;5097365;28;20036;-70
2023/12/13 06:41:45;;;;;;;116.07;64.50;;;;;;;2.08;100.00;99290.41;5090296;28;20024;-69
2023/12/13 06:44:10;;;;;;;136.35;87.30;;;;;;;2.17;100.00;99293.41;5108940;28;20067;-68
2023/12/13 06:46:36;;;;;;;127.60;62.58;;;;;;;2.21;100.00;99283.47;5101681;28;20102;-67
2023/12/13 06:49:01;;;;;;;119.10;63.35;;;;;;;2.30;100.00;99286.44;5106875;28;20023;-73
2023/12/13 06:51:27;;;;;;;141.48;70.80;;;;;;;2.18;100.00;99282.09;5092690;28;20067;-75
2023/12/13 06:53:52;;;;;;;131.43;66.07;;;;;;;2.12;100.00;99282.41;5075121;28;20035;-73
2023/12/13 06:56:18;;;;;;;195.82;89.70;;;;;;;2.28;100.00;99264.63;5103353;28;20039;-79
2023/12/13 06:58:43;;;;;;;176.65;82.40;;;;;;;2.38;100.00;99259.06;5084247;28;20379;-77
2023/12/13 07:01:10;;;;;;;180.85;87.68;;;;;;;2.35;100.00;99256.03;5098110;28;20059;-76
2023/12/13 07:03:35;;;;;;;142.32;80.78;;;;;;;2.24;100.00;99258.06;5106390;27;20424;-75
2023/12/13 07:06:02;;;;;;;143.50;79.65;;;;;;;2.21;100.00;99259.44;5102819;27;20039;-75
2023/12/13 07:08:28;;;;;;;149.68;77.32;;;;;;;2.10;100.00;99244.88;5112751;28;20034;-76
2023/12/13 07:10:53;;;;;;;153.30;81.68;;;;;;;2.39;100.00;99241.38;5104105;28;20024;-74
2023/12/13 07:13:19;;;;;;;161.82;87.05;;;;;;;2.31;100.00;99254.97;5074797;28;20042;-76
2023/12/13 07:15:44;;;;;;;174.32;88.57;;;;;;;2.52;100.00;99250.13;5097222;28;20037;-74
2023/12/13 07:18:10;;;;;;;147.30;72.53;;;;;;;2.44;100.00;99248.81;5077238;28;20039;-74
2023/12/13 07:20:35;;;;;;;92.30;49.85;;;;;;;2.30;100.00;99245.03;5104235;27;20035;-76
2023/12/13 07:23:01;;;;;;;90.28;49.17;;;;;;;2.51;100.00;99237.44;5088176;28;20036;-73
2023/12/13 07:25:26;;;;;;;77.05;42.47;;;;;;;2.56;100.00;99251.25;5102659;28;20027;-74
2023/12/13 07:27:52;;;;;;;68.35;38.08;;;;;;;2.50;100.00;99257.88;5108450;28;20035;-72
2023/12/13 07:30:17;;;;;;;90.68;56.05;;;;;;;2.67;100.00;99238.16;5111781;28;20034;-72
2023/12/13 07:32:44;;;;;;;90.57;48.03;;;;;;;2.29;100.00;99224.09;5113794;28;20600;-73
2023/12/13 07:35:10;;;;;;;94.55;49.88;;;;;;;2.51;100.00;99221.72;5108491;27;20534;-72
2023/12/13 07:37:36;;;;;;;96.55;51.15;;;;;;;2.71;100.00;99225.41;5113667;28;20083;-71
2023/12/13 07:40:06;;;;;;;98.78;49.25;;;;;;;2.90;100.00;99219.19;5095063;28;20030;-73
2023/12/13 07:42:32;;;;;;;90.05;46.40;;;;;;;2.87;100.00;99217.84;5105057;27;20031;-71
2023/12/13 07:44:58;;;;;;;74.38;38.05;;;;;;;3.19;100.00;99221.97;5091153;28;20028;-72
2023/12/13 07:47:24;;;;;;;43.60;26.13;;;;;;;2.92;100.00;99231.63;5087288;27;20503;-71
2023/12/13 07:49:49;;;;;;;53.25;28.13;;;;;;;3.16;100.00;99222.56;5088587;27;20499;-72
2023/12/13 07:52:15;;;;;;;58.53;29.52;;;;;;;3.36;100.00;99217.91;5097639;27;20028;-72
2023/12/13 07:54:42;;;;;;;59.33;27.23;;;;;;;3.36;100.00;99202.16;5106432;28;20027;-72
2023/12/13 07:57:08;;;;;;;42.97;24.70;;;;;;;3.54;100.00;99204.47;5099011;28;20032;-74
2023/12/13 07:59:33;;;;;;;38.42;22.33;;;;;;;3.75;100.00;99197.56;5092975;28;20035;-77
2023/12/13 08:01:59;;;;;;;66.18;34.45;;;;;;;3.91;100.00;99195.41;5108250;28;20039;-77
2023/12/13 08:04:24;;;;;;;77.97;43.40;;;;;;;3.90;100.00;99198.47;5101865;28;20056;-78
2023/12/13 08:06:50;;;;;;;69.43;37.53;;;;;;;3.87;100.00;99199.09;5097783;28;20035;-78
2023/12/13 08:09:18;;;;;;;61.60;35.72;;;;;;;3.91;100.00;99194.59;5102416;28;20039;-77
2023/12/13 08:11:44;;;;;;;55.90;31.33;;;;;;;4.03;100.00;99194.97;5109945;28;20098;-77
2023/12/13 08:14:09;;;;;;;47.25;26.08;;;;;;;4.08;100.00;99199.63;5077405;28;20107;-77
2023/12/13 08:16:35;;;;;;;51.08;28.95;;;;;;;4.01;100.00;99177.84;5091907;28;20476;-76
2023/12/13 08:19:01;;;;;;;45.88;26.77;;;;;;;4.14;100.00;99183.75;5105262;28;20043;-78
2023/12/13 08:21:27;;;;;;;53.33;26.85;;;;;;;4.17;100.00;99197.00;5109873;28;20098;-77
2023/12/13 08:23:52;;;;;;;47.25;25.98;;;;;;;4.47;100.00;99195.72;5089860;28;20412;-77
2023/12/13 08:26:18;;;;;;;44.35;26.00;;;;;;;4.22;100.00;99203.28;5112656;28;20028;-76
2023/12/13 08:28:44;;;;;;;37.75;22.65;;;;;;;4.41;100.00;99198.88;5106783;28;20108;-76
2023/12/13 08:31:11;;;;;;;51.70;33.50;;;;;;;4.24;100.00;99197.47;5102223;28;20040;-77
2023/12/13 08:33:40;;;;;;;37.92;24.73;;;;;;;4.35;100.00;99193.41;5099216;28;20020;-76
2023/12/13 08:36:11;;;;;;;34.58;20.42;;;;;;;4.49;100.00;99181.56;5104627;28;20039;-77
2023/12/13 08:38:39;;;;;;;49.10;21.92;;;;;;;4.50;100.00;99185.97;5100262;27;20470;-76
2023/12/13 08:41:11;;;;;;;44.95;23.95;;;;;;;4.17;100.00;99200.59;5082691;28;20023;-76
2023/12/13 08:43:38;;;;;;;28.33;17.67;;;;;;;4.06;100.00;99188.84;5088657;28;20019;-76
2023/12/13 08:46:04;;;;;;;31.52;19.17;;;;;;;3.96;100.00;99183.44;5096630;28;20385;-76
2023/12/13 08:48:30;;;;;;;32.15;19.13;;;;;;;3.93;100.00;99181.28;5102274;28;20076;-80
2023/12/13 08:50:56;;;;;;;28.45;16.05;;;;;;;4.40;100.00;99178.63;5094985;28;20024;-80
2023/12/13 08:53:22;;;;;;;30.30;16.73;;;;;;;4.58;100.00;99185.28;5084242;28;20554;-78
2023/12/13 08:55:47;;;;;;;25.27;15.73;;;;;;;4.52;100.00;99191.22;5083193;28;20487;-81
2023/12/13 08:58:13;;;;;;;29.80;17.00;;;;;;;4.29;100.00;99183.53;5102979;28;20084;-80
2023/12/13 09:00:38;;;;;;;28.90;18.05;;;;;;;4.41;100.00;99169.25;5104828;28;20516;-80
2023/12/13 09:03:04;;;;;;;31.08;16.65;;;;;;;4.48;100.00;99155.00;5079934;28;20036;-80
2023/12/13 09:05:30;;;;;;;27.42;16.83;;;;;;;4.49;100.00;99149.13;5100465;28;20096;-80
2023/12/13 09:07:55;;;;;;;27.98;17.40;;;;;;;4.51;100.00;99135.00;5103410;28;20470;-81
2023/12/13 09:10:22;;;;;;;25.52;15.38;;;;;;;4.57;100.00;99144.84;5085459;28;20020;-81
2023/12/13 09:12:48;;;;;;;28.67;16.63;;;;;;;4.80;100.00;99135.91;5072690;28;20028;-81
2023/12/13 09:15:16;;;;;;;33.17;17.38;;;;;;;4.81;100.00;99137.53;5092720;28;20035;-80
2023/12/13 09:17:45;;;;;;;27.65;17.27;;;;;;;5.01;100.00;99147.44;5086886;28;20563;-81
2023/12/13 09:20:14;;;;;;;32.95;18.13;;;;;;;5.04;100.00;99144.03;5098515;28;20035;-81
2023/12/13 09:22:41;;;;;;;29.73;16.83;;;;;;;5.06;100.00;99139.84;5089320;28;20109;-80
2023/12/13 09:25:07;;;;;;;27.17;17.00;;;;;;;5.15;100.00;99128.06;5105289;28;20093;-81
2023/12/13 09:27:32;;;;;;;25.50;17.27;;;;;;;5.09;100.00;99115.41;5109863;28;20024;-77
2023/12/13 09:29:58;;;;;;;24.50;16.63;;;;;;;5.03;100.00;99134.91;5098118;28;20172;-80
2023/12/13 09:32:23;;;;;;;24.58;16.58;;;;;;;5.09;100.00;99120.94;5082138;28;20039;-80
2023/12/13 09:34:49;;;;;;;38.58;20.98;;;;;;;5.09;100.00;99119.00;5100220;28;20031;-80
2023/12/13 09:37:15;;;;;;;41.25;21.77;;;;;;;5.24;100.00;99128.16;5089977;28;20023;-79
2023/12/13 09:39:41;;;;;;;36.58;20.80;;;;;;;5.14;100.00;99141.06;5110030;27;20031;-80
2023/12/13 09:42:07;;;;;;;40.72;23.02;;;;;;;5.25;100.00;99147.25;5103279;27;20511;-81
2023/12/13 09:44:38;;;;;;;42.05;25.10;;;;;;;5.33;100.00;99137.41;5092021;28;20075;-78
2023/12/13 09:47:05;;;;;;;51.28;25.33;;;;;;;5.22;100.00;99124.88;5110276;27;20408;-77
2023/12/13 09:49:34;;;;;;;45.75;26.52;;;;;;;5.37;100.00;99148.69;5082371;28;20066;-73
2023/12/13 09:52:08;;;;;;;44.42;25.27;;;;;;;5.44;100.00;99144.38;5106569;28;20079;-74
2023/12/13 09:54:41;;;;;;;46.13;25.67;;;;;;;5.26;100.00;99123.94;5093796;28;20503;-74
2023/12/13 09:57:06;;;;;;;47.78;26.23;;;;;;;5.24;100.00;99114.28;5114842;28;20035;-74
2023/12/13 09:59:32;;;;;;;44.78;27.63;;;;;;;5.19;100.00;99104.13;5087095;28;20031;-69
2023/12/13 10:01:57;;;;;;;49.70;26.80;;;;;;;5.25;100.00;99108.44;5102859;28;20040;-69
2023/12/13 10:04:30;;;;;;;48.38;25.33;;;;;;;5.13;100.00;99097.00;5098118;28;20051;-68
2023/12/13 10:06:56;;;;;;;44.60;24.50;;;;;;;5.12;100.00;99096.22;5104423;28;20035;-70
2023/12/13 10:09:29;;;;;;;45.38;25.05;;;;;;;5.27;100.00;99099.78;5092917;28;20037;-69
2023/12/13 10:11:55;;;;;;;41.83;24.40;;;;;;;5.39;100.00;99102.06;5077560;28;20089;-69
2023/12/13 10:14:20;;;;;;;52.70;26.35;;;;;;;5.01;100.00;99103.06;5107830;28;20027;-68
2023/12/13 10:16:46;;;;;;;45.70;26.63;;;;;;;4.75;100.00;99106.34;5111092;28;20031;-68
2023/12/13 10:19:11;;;;;;;58.10;28.23;;;;;;;4.81;100.00;99109.84;5081306;28;20024;-69
2023/12/13 10:21:37;;;;;;;50.33;24.20;;;;;;;5.03;100.00;99109.13;5104172;28;20382;-69
2023/12/13 10:24:06;;;;;;;49.88;22.67;;;;;;;5.22;100.00;99105.47;5096995;28;20027;-68
2023/12/13 10:26:35;;;;;;;34.15;20.38;;;;;;;5.11;100.00;99097.34;5103858;28;20028;-68
2023/12/13 10:29:02;;;;;;;33.30;19.77;;;;;;;5.53;100.00;99082.59;5072568;28;20476;-68
2023/12/13 10:31:27;;;;;;;38.28;19.52;;;;;;;5.79;100.00;99084.81;5094513;28;20483;-68
2023/12/13 10:33:53;;;;;;;35.53;17.67;;;;;;;5.94;100.00;99083.66;5087989;28;20031;-69
2023/12/13 10:36:20;;;;;;;42.78;19.70;;;;;;;5.94;100.00;99078.94;5111018;28;20016;-68
2023/12/13 10:38:47;;;;;;;38.20;21.08;;;;;;;6.46;100.00;99089.66;5111006;28;20514;-69
2023/12/13 10:41:14;;;;;;;42.83;21.33;;;;;;;6.06;100.00;99086.72;5106828;28;20024;-70
2023/12/13 10:43:41;;;;;;;42.20;20.63;;;;;;;6.37;100.00;99093.47;5085853;28;20496;-69
2023/12/13 10:46:11;;;;;;;41.08;20.80;;;;;;;6.43;100.00;99083.91;5099287;28;20108;-68
2023/12/13 10:48:39;;;;;;;33.63;18.27;;;;;;;6.16;100.00;99069.00;5105128;28;20031;-69
2023/12/13 10:51:06;;;;;;;37.33;20.20;;;;;;;6.36;100.00;99075.19;5104751;28;20504;-69
2023/12/13 10:53:33;;;;;;;32.88;17.80;;;;;;;6.49;100.00;99082.63;5110222;28;20027;-68
2023/12/13 10:56:02;;;;;;;32.65;17.38;;;;;;;6.52;100.00;99076.44;5110777;28;20083;-69
2023/12/13 10:58:28;;;;;;;30.88;18.15;;;;;;;6.02;100.00;99063.50;5091832;28;20115;-69
2023/12/13 11:00:54;;;;;;;29.30;16.50;;;;;;;5.87;100.00;99050.78;5091037;28;20856;-70
2023/12/13 11:03:42;;;;;;;37.33;18.38;;;;;;;6.32;100.00;99042.47;5102169;28;20084;-69
2023/12/13 11:06:12;;;;;;;33.20;17.42;;;;;;;6.50;100.00;99039.78;5075942;28;20024;-69
2023/12/13 11:08:43;;;;;;;32.28;18.73;;;;;;;6.61;100.00;99054.25;5094438;28;20030;-69
2023/12/13 11:11:11;;;;;;;30.10;16.77;;;;;;;6.70;100.00;99052.34;5075802;28;20327;-69